sensor_id;sensor_type;location;lat;lon;timestamp;P1;durP1;ratioP1;P2;durP2;ratioP2
15055;SDS011;7626;42.674;23.284;2023-07-13T00:02:08;5.05;;;3.92;;
15055;SDS011;7626;42.674;23.284;2023-07-13T00:04:36;4.10;;;3.55;;
15055;SDS011;7626;42.674;23.284;2023-07-13T00:07:02;5.05;;;3.83;;
15055;SDS011;7626;42.674;23.284;2023-07-13T00:09:29;5.53;;;3.90;;
15055;SDS011;7626;42.674;23.284;2023-07-13T00:11:56;5.20;;;3.38;;
15055;SDS011;7626;42.674;23.284;2023-07-13T00:14:23;5.65;;;4.18;;
15055;SDS011;7626;42.674;23.284;2023-07-13T00:16:49;4.68;;;3.85;;
15055;SDS011;7626;42.674;23.284;2023-07-13T00:19:16;5.07;;;3.65;;
15055;SDS011;7626;42.674;23.284;2023-07-13T00:21:44;5.07;;;3.78;;
15055;SDS011;7626;42.674;23.284;2023-07-13T00:24:12;5.78;;;4.15;;
15055;SDS011;7626;42.674;23.284;2023-07-13T00:26:40;6.03;;;4.20;;
15055;SDS011;7626;42.674;23.284;2023-07-13T00:29:10;4.10;;;3.70;;
15055;SDS011;7626;42.674;23.284;2023-07-13T00:31:37;5.93;;;4.10;;
15055;SDS011;7626;42.674;23.284;2023-07-13T00:34:03;5.47;;;3.83;;
15055;SDS011;7626;42.674;23.284;2023-07-13T00:36:30;6.57;;;3.90;;
15055;SDS011;7626;42.674;23.284;2023-07-13T00:38:58;6.78;;;4.30;;
15055;SDS011;7626;42.674;23.284;2023-07-13T00:41:25;4.20;;;3.67;;
15055;SDS011;7626;42.674;23.284;2023-07-13T00:43:51;5.13;;;3.80;;
15055;SDS011;7626;42.674;23.284;2023-07-13T00:46:20;4.35;;;3.92;;
15055;SDS011;7626;42.674;23.284;2023-07-13T00:48:47;4.25;;;3.78;;
15055;SDS011;7626;42.674;23.284;2023-07-13T00:51:14;4.65;;;3.90;;
15055;SDS011;7626;42.674;23.284;2023-07-13T00:53:42;5.57;;;4.00;;
15055;SDS011;7626;42.674;23.284;2023-07-13T00:56:10;5.90;;;4.57;;
15055;SDS011;7626;42.674;23.284;2023-07-13T00:58:36;4.80;;;4.00;;
15055;SDS011;7626;42.674;23.284;2023-07-13T01:01:03;4.88;;;3.97;;
15055;SDS011;7626;42.674;23.284;2023-07-13T01:03:29;5.18;;;4.18;;
15055;SDS011;7626;42.674;23.284;2023-07-13T01:05:56;4.97;;;4.20;;
15055;SDS011;7626;42.674;23.284;2023-07-13T01:08:22;4.70;;;4.30;;
15055;SDS011;7626;42.674;23.284;2023-07-13T01:10:53;6.15;;;4.22;;
15055;SDS011;7626;42.674;23.284;2023-07-13T01:13:20;5.68;;;4.45;;
15055;SDS011;7626;42.674;23.284;2023-07-13T01:15:47;5.75;;;4.60;;
15055;SDS011;7626;42.674;23.284;2023-07-13T01:18:15;5.50;;;5.00;;
15055;SDS011;7626;42.674;23.284;2023-07-13T01:20:50;6.88;;;5.18;;
15055;SDS011;7626;42.674;23.284;2023-07-13T01:23:16;5.70;;;4.82;;
15055;SDS011;7626;42.674;23.284;2023-07-13T01:25:44;6.35;;;5.30;;
15055;SDS011;7626;42.674;23.284;2023-07-13T01:28:10;6.22;;;5.45;;
15055;SDS011;7626;42.674;23.284;2023-07-13T01:30:37;8.50;;;5.47;;
15055;SDS011;7626;42.674;23.284;2023-07-13T01:33:05;7.57;;;5.82;;
15055;SDS011;7626;42.674;23.284;2023-07-13T01:35:32;7.63;;;5.53;;
15055;SDS011;7626;42.674;23.284;2023-07-13T01:38:00;6.35;;;5.75;;
15055;SDS011;7626;42.674;23.284;2023-07-13T01:40:26;7.38;;;5.95;;
15055;SDS011;7626;42.674;23.284;2023-07-13T01:42:53;6.35;;;5.75;;
15055;SDS011;7626;42.674;23.284;2023-07-13T01:45:20;8.18;;;6.05;;
15055;SDS011;7626;42.674;23.284;2023-07-13T01:47:46;6.63;;;5.72;;
15055;SDS011;7626;42.674;23.284;2023-07-13T01:50:13;8.20;;;5.85;;
15055;SDS011;7626;42.674;23.284;2023-07-13T01:52:39;6.85;;;5.63;;
15055;SDS011;7626;42.674;23.284;2023-07-13T01:55:07;9.52;;;6.22;;
15055;SDS011;7626;42.674;23.284;2023-07-13T01:57:34;8.15;;;5.65;;
15055;SDS011;7626;42.674;23.284;2023-07-13T02:00:01;7.18;;;6.18;;
15055;SDS011;7626;42.674;23.284;2023-07-13T02:02:28;9.20;;;6.30;;
15055;SDS011;7626;42.674;23.284;2023-07-13T02:04:54;7.15;;;6.20;;
15055;SDS011;7626;42.674;23.284;2023-07-13T02:07:21;8.05;;;6.28;;
15055;SDS011;7626;42.674;23.284;2023-07-13T02:09:47;7.13;;;5.85;;
15055;SDS011;7626;42.674;23.284;2023-07-13T02:12:14;6.70;;;6.00;;
15055;SDS011;7626;42.674;23.284;2023-07-13T02:14:40;7.95;;;5.88;;
15055;SDS011;7626;42.674;23.284;2023-07-13T02:17:09;9.57;;;6.15;;
15055;SDS011;7626;42.674;23.284;2023-07-13T02:19:35;7.13;;;5.88;;
15055;SDS011;7626;42.674;23.284;2023-07-13T02:22:02;7.55;;;6.30;;
15055;SDS011;7626;42.674;23.284;2023-07-13T02:24:28;8.32;;;5.75;;
15055;SDS011;7626;42.674;23.284;2023-07-13T02:26:55;6.78;;;5.75;;
15055;SDS011;7626;42.674;23.284;2023-07-13T02:29:22;7.63;;;6.50;;
15055;SDS011;7626;42.674;23.284;2023-07-13T02:31:49;9.32;;;5.85;;
15055;SDS011;7626;42.674;23.284;2023-07-13T02:34:15;7.90;;;5.85;;
15055;SDS011;7626;42.674;23.284;2023-07-13T02:36:42;10.13;;;5.93;;
15055;SDS011;7626;42.674;23.284;2023-07-13T02:39:09;8.60;;;5.97;;
15055;SDS011;7626;42.674;23.284;2023-07-13T02:41:37;7.85;;;5.82;;
15055;SDS011;7626;42.674;23.284;2023-07-13T02:44:04;13.77;;;10.48;;
15055;SDS011;7626;42.674;23.284;2023-07-13T02:46:32;14.35;;;11.50;;
15055;SDS011;7626;42.674;23.284;2023-07-13T02:48:59;13.63;;;12.23;;
15055;SDS011;7626;42.674;23.284;2023-07-13T02:51:25;14.73;;;13.13;;
15055;SDS011;7626;42.674;23.284;2023-07-13T02:53:51;14.43;;;10.73;;
15055;SDS011;7626;42.674;23.284;2023-07-13T02:56:19;12.23;;;9.50;;
15055;SDS011;7626;42.674;23.284;2023-07-13T02:58:45;9.23;;;8.00;;
15055;SDS011;7626;42.674;23.284;2023-07-13T03:01:12;8.20;;;6.88;;
15055;SDS011;7626;42.674;23.284;2023-07-13T03:03:39;7.30;;;6.50;;
15055;SDS011;7626;42.674;23.284;2023-07-13T03:06:06;7.50;;;5.95;;
15055;SDS011;7626;42.674;23.284;2023-07-13T03:08:33;9.93;;;5.97;;
15055;SDS011;7626;42.674;23.284;2023-07-13T03:11:00;29.58;;;25.35;;
15055;SDS011;7626;42.674;23.284;2023-07-13T03:13:26;19.52;;;15.50;;
15055;SDS011;7626;42.674;23.284;2023-07-13T03:15:53;7.55;;;6.82;;
15055;SDS011;7626;42.674;23.284;2023-07-13T03:18:19;8.13;;;7.25;;
15055;SDS011;7626;42.674;23.284;2023-07-13T03:20:47;8.90;;;6.75;;
15055;SDS011;7626;42.674;23.284;2023-07-13T03:23:16;9.07;;;6.07;;
15055;SDS011;7626;42.674;23.284;2023-07-13T03:25:42;7.38;;;6.53;;
15055;SDS011;7626;42.674;23.284;2023-07-13T03:28:10;7.30;;;6.25;;
15055;SDS011;7626;42.674;23.284;2023-07-13T03:30:36;9.32;;;5.93;;
15055;SDS011;7626;42.674;23.284;2023-07-13T03:33:03;10.98;;;9.82;;
15055;SDS011;7626;42.674;23.284;2023-07-13T03:35:29;14.20;;;9.63;;
15055;SDS011;7626;42.674;23.284;2023-07-13T03:37:58;10.13;;;8.57;;
15055;SDS011;7626;42.674;23.284;2023-07-13T03:40:25;9.95;;;8.40;;
15055;SDS011;7626;42.674;23.284;2023-07-13T03:42:52;9.25;;;7.00;;
15055;SDS011;7626;42.674;23.284;2023-07-13T03:45:18;8.05;;;5.78;;
15055;SDS011;7626;42.674;23.284;2023-07-13T03:47:45;8.75;;;5.65;;
15055;SDS011;7626;42.674;23.284;2023-07-13T03:50:11;5.97;;;5.28;;
15055;SDS011;7626;42.674;23.284;2023-07-13T03:52:38;6.63;;;5.53;;
15055;SDS011;7626;42.674;23.284;2023-07-13T03:55:06;7.90;;;5.95;;
15055;SDS011;7626;42.674;23.284;2023-07-13T03:57:32;6.60;;;5.65;;
15055;SDS011;7626;42.674;23.284;2023-07-13T03:59:59;12.05;;;6.75;;
15055;SDS011;7626;42.674;23.284;2023-07-13T04:02:26;13.48;;;6.60;;
15055;SDS011;7626;42.674;23.284;2023-07-13T04:04:52;7.55;;;5.88;;
15055;SDS011;7626;42.674;23.284;2023-07-13T04:07:19;6.90;;;5.65;;
15055;SDS011;7626;42.674;23.284;2023-07-13T04:09:45;9.57;;;6.22;;
15055;SDS011;7626;42.674;23.284;2023-07-13T04:12:13;9.63;;;6.50;;
15055;SDS011;7626;42.674;23.284;2023-07-13T04:14:40;8.70;;;6.20;;
15055;SDS011;7626;42.674;23.284;2023-07-13T04:17:06;8.85;;;6.53;;
15055;SDS011;7626;42.674;23.284;2023-07-13T04:19:33;9.30;;;6.82;;
15055;SDS011;7626;42.674;23.284;2023-07-13T04:22:00;6.97;;;6.32;;
15055;SDS011;7626;42.674;23.284;2023-07-13T04:24:26;11.90;;;6.63;;
15055;SDS011;7626;42.674;23.284;2023-07-13T04:26:52;8.98;;;7.05;;
15055;SDS011;7626;42.674;23.284;2023-07-13T04:29:20;9.63;;;7.07;;
15055;SDS011;7626;42.674;23.284;2023-07-13T04:31:47;8.77;;;6.68;;
15055;SDS011;7626;42.674;23.284;2023-07-13T04:34:13;8.75;;;6.85;;
15055;SDS011;7626;42.674;23.284;2023-07-13T04:36:40;12.70;;;6.68;;
15055;SDS011;7626;42.674;23.284;2023-07-13T04:39:06;9.60;;;6.93;;
15055;SDS011;7626;42.674;23.284;2023-07-13T04:41:33;9.77;;;7.43;;
15055;SDS011;7626;42.674;23.284;2023-07-13T04:43:59;12.48;;;8.27;;
15055;SDS011;7626;42.674;23.284;2023-07-13T04:46:29;11.70;;;8.15;;
15055;SDS011;7626;42.674;23.284;2023-07-13T04:48:56;11.57;;;8.18;;
15055;SDS011;7626;42.674;23.284;2023-07-13T04:51:23;11.07;;;7.43;;
15055;SDS011;7626;42.674;23.284;2023-07-13T04:53:50;9.75;;;7.78;;
15055;SDS011;7626;42.674;23.284;2023-07-13T04:56:17;9.88;;;7.57;;
15055;SDS011;7626;42.674;23.284;2023-07-13T04:58:44;12.05;;;8.10;;
15055;SDS011;7626;42.674;23.284;2023-07-13T05:01:11;12.52;;;8.25;;
15055;SDS011;7626;42.674;23.284;2023-07-13T05:03:40;13.85;;;8.60;;
15055;SDS011;7626;42.674;23.284;2023-07-13T05:06:07;11.60;;;8.65;;
15055;SDS011;7626;42.674;23.284;2023-07-13T05:08:35;11.55;;;8.80;;
15055;SDS011;7626;42.674;23.284;2023-07-13T05:11:01;12.05;;;10.63;;
15055;SDS011;7626;42.674;23.284;2023-07-13T05:13:28;12.00;;;10.60;;
15055;SDS011;7626;42.674;23.284;2023-07-13T05:15:55;11.98;;;10.15;;
15055;SDS011;7626;42.674;23.284;2023-07-13T05:18:22;12.15;;;10.80;;
15055;SDS011;7626;42.674;23.284;2023-07-13T05:20:56;14.63;;;9.25;;
15055;SDS011;7626;42.674;23.284;2023-07-13T05:23:23;11.25;;;10.00;;
15055;SDS011;7626;42.674;23.284;2023-07-13T05:25:49;10.55;;;9.45;;
15055;SDS011;7626;42.674;23.284;2023-07-13T05:28:16;12.68;;;9.57;;
15055;SDS011;7626;42.674;23.284;2023-07-13T05:30:44;11.57;;;9.68;;
15055;SDS011;7626;42.674;23.284;2023-07-13T05:33:11;12.80;;;8.73;;
15055;SDS011;7626;42.674;23.284;2023-07-13T05:35:38;14.93;;;9.40;;
15055;SDS011;7626;42.674;23.284;2023-07-13T05:38:05;10.32;;;8.63;;
15055;SDS011;7626;42.674;23.284;2023-07-13T05:40:32;10.73;;;7.85;;
15055;SDS011;7626;42.674;23.284;2023-07-13T05:42:59;9.82;;;7.68;;
15055;SDS011;7626;42.674;23.284;2023-07-13T05:45:25;7.93;;;7.07;;
15055;SDS011;7626;42.674;23.284;2023-07-13T05:47:52;10.90;;;8.00;;
15055;SDS011;7626;42.674;23.284;2023-07-13T05:50:18;9.93;;;8.32;;
15055;SDS011;7626;42.674;23.284;2023-07-13T05:52:45;13.55;;;7.80;;
15055;SDS011;7626;42.674;23.284;2023-07-13T05:55:12;8.60;;;7.65;;
15055;SDS011;7626;42.674;23.284;2023-07-13T05:57:39;10.32;;;7.88;;
15055;SDS011;7626;42.674;23.284;2023-07-13T06:00:06;11.80;;;8.15;;
15055;SDS011;7626;42.674;23.284;2023-07-13T06:02:33;10.52;;;7.55;;
15055;SDS011;7626;42.674;23.284;2023-07-13T06:04:59;10.50;;;7.40;;
15055;SDS011;7626;42.674;23.284;2023-07-13T06:07:25;11.32;;;8.10;;
15055;SDS011;7626;42.674;23.284;2023-07-13T06:09:52;11.93;;;8.07;;
15055;SDS011;7626;42.674;23.284;2023-07-13T06:12:20;9.05;;;8.07;;
15055;SDS011;7626;42.674;23.284;2023-07-13T06:14:46;9.75;;;7.68;;
15055;SDS011;7626;42.674;23.284;2023-07-13T06:17:13;9.38;;;7.97;;
15055;SDS011;7626;42.674;23.284;2023-07-13T06:19:39;11.02;;;8.25;;
15055;SDS011;7626;42.674;23.284;2023-07-13T06:22:06;9.60;;;7.25;;
15055;SDS011;7626;42.674;23.284;2023-07-13T06:24:32;10.18;;;7.32;;
15055;SDS011;7626;42.674;23.284;2023-07-13T06:26:58;8.68;;;7.60;;
15055;SDS011;7626;42.674;23.284;2023-07-13T06:29:26;8.93;;;8.02;;
15055;SDS011;7626;42.674;23.284;2023-07-13T06:31:53;9.52;;;7.70;;
15055;SDS011;7626;42.674;23.284;2023-07-13T06:34:19;9.32;;;7.53;;
15055;SDS011;7626;42.674;23.284;2023-07-13T06:36:46;8.05;;;7.25;;
15055;SDS011;7626;42.674;23.284;2023-07-13T06:39:12;7.97;;;7.22;;
15055;SDS011;7626;42.674;23.284;2023-07-13T06:41:39;9.32;;;8.25;;
15055;SDS011;7626;42.674;23.284;2023-07-13T06:44:05;8.50;;;7.70;;
15055;SDS011;7626;42.674;23.284;2023-07-13T06:46:33;10.40;;;8.48;;
15055;SDS011;7626;42.674;23.284;2023-07-13T06:49:00;9.10;;;8.18;;
15055;SDS011;7626;42.674;23.284;2023-07-13T06:51:26;9.55;;;8.13;;
15055;SDS011;7626;42.674;23.284;2023-07-13T06:53:53;8.68;;;7.78;;
15055;SDS011;7626;42.674;23.284;2023-07-13T06:56:21;12.07;;;8.63;;
15055;SDS011;7626;42.674;23.284;2023-07-13T06:58:47;9.60;;;8.23;;
15055;SDS011;7626;42.674;23.284;2023-07-13T07:01:14;9.80;;;8.07;;
15055;SDS011;7626;42.674;23.284;2023-07-13T07:03:41;10.30;;;8.73;;
15055;SDS011;7626;42.674;23.284;2023-07-13T07:06:12;10.02;;;8.48;;
15055;SDS011;7626;42.674;23.284;2023-07-13T07:08:39;9.50;;;8.52;;
15055;SDS011;7626;42.674;23.284;2023-07-13T07:11:05;10.02;;;8.45;;
15055;SDS011;7626;42.674;23.284;2023-07-13T07:13:32;9.93;;;8.90;;
15055;SDS011;7626;42.674;23.284;2023-07-13T07:15:58;10.30;;;8.82;;
15055;SDS011;7626;42.674;23.284;2023-07-13T07:18:25;9.88;;;8.82;;
15055;SDS011;7626;42.674;23.284;2023-07-13T07:20:53;10.85;;;8.63;;
15055;SDS011;7626;42.674;23.284;2023-07-13T07:23:20;11.75;;;8.50;;
15055;SDS011;7626;42.674;23.284;2023-07-13T07:25:46;10.02;;;8.80;;
15055;SDS011;7626;42.674;23.284;2023-07-13T07:28:14;12.27;;;9.10;;
15055;SDS011;7626;42.674;23.284;2023-07-13T07:30:43;11.00;;;8.82;;
15055;SDS011;7626;42.674;23.284;2023-07-13T07:33:09;9.68;;;8.68;;
15055;SDS011;7626;42.674;23.284;2023-07-13T07:35:36;11.27;;;8.25;;
15055;SDS011;7626;42.674;23.284;2023-07-13T07:38:03;9.93;;;8.95;;
15055;SDS011;7626;42.674;23.284;2023-07-13T07:40:30;13.27;;;10.00;;
15055;SDS011;7626;42.674;23.284;2023-07-13T07:42:57;9.85;;;8.85;;
15055;SDS011;7626;42.674;23.284;2023-07-13T07:45:24;9.43;;;8.48;;
15055;SDS011;7626;42.674;23.284;2023-07-13T07:47:50;9.57;;;8.20;;
15055;SDS011;7626;42.674;23.284;2023-07-13T07:50:17;9.98;;;8.73;;
15055;SDS011;7626;42.674;23.284;2023-07-13T07:52:45;9.40;;;8.50;;
15055;SDS011;7626;42.674;23.284;2023-07-13T07:55:13;9.23;;;8.43;;
15055;SDS011;7626;42.674;23.284;2023-07-13T07:57:39;10.82;;;8.23;;
15055;SDS011;7626;42.674;23.284;2023-07-13T08:00:06;13.43;;;12.02;;
15055;SDS011;7626;42.674;23.284;2023-07-13T08:02:33;10.20;;;9.05;;
15055;SDS011;7626;42.674;23.284;2023-07-13T08:04:59;10.30;;;8.90;;
15055;SDS011;7626;42.674;23.284;2023-07-13T08:07:26;10.90;;;8.95;;
15055;SDS011;7626;42.674;23.284;2023-07-13T08:09:52;10.45;;;9.35;;
15055;SDS011;7626;42.674;23.284;2023-07-13T08:12:20;9.98;;;8.60;;
15055;SDS011;7626;42.674;23.284;2023-07-13T08:14:49;10.63;;;8.80;;
15055;SDS011;7626;42.674;23.284;2023-07-13T08:17:18;11.77;;;9.15;;
15055;SDS011;7626;42.674;23.284;2023-07-13T08:19:45;12.10;;;8.20;;
15055;SDS011;7626;42.674;23.284;2023-07-13T08:22:11;10.60;;;9.00;;
15055;SDS011;7626;42.674;23.284;2023-07-13T08:24:38;9.98;;;7.85;;
15055;SDS011;7626;42.674;23.284;2023-07-13T08:27:04;12.20;;;8.75;;
15055;SDS011;7626;42.674;23.284;2023-07-13T08:29:32;9.07;;;8.25;;
15055;SDS011;7626;42.674;23.284;2023-07-13T08:31:59;10.30;;;8.52;;
15055;SDS011;7626;42.674;23.284;2023-07-13T08:34:25;11.15;;;10.05;;
15055;SDS011;7626;42.674;23.284;2023-07-13T08:36:52;9.80;;;8.40;;
15055;SDS011;7626;42.674;23.284;2023-07-13T08:39:18;10.55;;;8.40;;
15055;SDS011;7626;42.674;23.284;2023-07-13T08:41:45;11.20;;;8.10;;
15055;SDS011;7626;42.674;23.284;2023-07-13T08:44:15;9.48;;;8.35;;
15055;SDS011;7626;42.674;23.284;2023-07-13T08:46:44;12.55;;;8.63;;
15055;SDS011;7626;42.674;23.284;2023-07-13T08:49:13;10.50;;;8.30;;
15055;SDS011;7626;42.674;23.284;2023-07-13T08:51:42;10.25;;;8.25;;
15055;SDS011;7626;42.674;23.284;2023-07-13T08:54:15;11.13;;;8.20;;
15055;SDS011;7626;42.674;23.284;2023-07-13T08:56:43;12.80;;;8.27;;
15055;SDS011;7626;42.674;23.284;2023-07-13T08:59:11;11.15;;;8.27;;
15055;SDS011;7626;42.674;23.284;2023-07-13T09:01:46;12.88;;;8.18;;
15055;SDS011;7626;42.674;23.284;2023-07-13T09:04:14;10.05;;;8.68;;
15055;SDS011;7626;42.674;23.284;2023-07-13T09:06:43;14.80;;;9.10;;
15055;SDS011;7626;42.674;23.284;2023-07-13T09:09:15;10.88;;;7.97;;
15055;SDS011;7626;42.674;23.284;2023-07-13T09:11:46;9.63;;;7.85;;
15055;SDS011;7626;42.674;23.284;2023-07-13T09:14:23;14.77;;;9.00;;
15055;SDS011;7626;42.674;23.284;2023-07-13T09:16:54;10.57;;;8.65;;
15055;SDS011;7626;42.674;23.284;2023-07-13T09:19:23;10.55;;;8.77;;
15055;SDS011;7626;42.674;23.284;2023-07-13T09:21:52;14.70;;;9.07;;
15055;SDS011;7626;42.674;23.284;2023-07-13T09:24:34;10.73;;;8.25;;
15055;SDS011;7626;42.674;23.284;2023-07-13T09:27:03;10.95;;;8.63;;
15055;SDS011;7626;42.674;23.284;2023-07-13T09:29:31;13.07;;;8.32;;
15055;SDS011;7626;42.674;23.284;2023-07-13T09:32:02;10.48;;;9.02;;
15055;SDS011;7626;42.674;23.284;2023-07-13T09:34:30;9.23;;;8.27;;
15055;SDS011;7626;42.674;23.284;2023-07-13T09:36:58;11.57;;;8.98;;
15055;SDS011;7626;42.674;23.284;2023-07-13T09:39:25;10.20;;;8.55;;
15055;SDS011;7626;42.674;23.284;2023-07-13T09:41:53;11.65;;;9.07;;
15055;SDS011;7626;42.674;23.284;2023-07-13T09:44:27;12.23;;;8.75;;
15055;SDS011;7626;42.674;23.284;2023-07-13T09:46:56;12.23;;;8.52;;
15055;SDS011;7626;42.674;23.284;2023-07-13T09:49:24;9.65;;;7.75;;
15055;SDS011;7626;42.674;23.284;2023-07-13T09:51:57;10.48;;;7.50;;
15055;SDS011;7626;42.674;23.284;2023-07-13T09:54:24;10.98;;;7.93;;
15055;SDS011;7626;42.674;23.284;2023-07-13T09:56:53;9.32;;;7.65;;
15055;SDS011;7626;42.674;23.284;2023-07-13T09:59:21;9.32;;;6.80;;
15055;SDS011;7626;42.674;23.284;2023-07-13T10:01:49;9.02;;;5.50;;
15055;SDS011;7626;42.674;23.284;2023-07-13T10:04:17;8.85;;;5.43;;
15055;SDS011;7626;42.674;23.284;2023-07-13T10:06:46;6.07;;;5.15;;
15055;SDS011;7626;42.674;23.284;2023-07-13T10:09:15;10.98;;;5.38;;
15055;SDS011;7626;42.674;23.284;2023-07-13T10:11:41;9.90;;;5.70;;
15055;SDS011;7626;42.674;23.284;2023-07-13T10:14:10;9.75;;;5.40;;
15055;SDS011;7626;42.674;23.284;2023-07-13T10:16:37;7.75;;;5.70;;
15055;SDS011;7626;42.674;23.284;2023-07-13T10:19:05;6.20;;;5.32;;
15055;SDS011;7626;42.674;23.284;2023-07-13T10:21:34;6.85;;;5.60;;
15055;SDS011;7626;42.674;23.284;2023-07-13T10:24:04;7.25;;;5.72;;
15055;SDS011;7626;42.674;23.284;2023-07-13T10:26:32;6.10;;;4.93;;
15055;SDS011;7626;42.674;23.284;2023-07-13T10:29:02;8.70;;;5.63;;
15055;SDS011;7626;42.674;23.284;2023-07-13T10:31:30;9.52;;;6.00;;
15055;SDS011;7626;42.674;23.284;2023-07-13T10:33:57;7.15;;;5.15;;
15055;SDS011;7626;42.674;23.284;2023-07-13T10:36:28;7.18;;;5.50;;
15055;SDS011;7626;42.674;23.284;2023-07-13T10:38:56;7.18;;;5.18;;
15055;SDS011;7626;42.674;23.284;2023-07-13T10:41:25;8.10;;;5.97;;
15055;SDS011;7626;42.674;23.284;2023-07-13T10:43:54;14.05;;;9.13;;
15055;SDS011;7626;42.674;23.284;2023-07-13T10:46:23;8.40;;;6.53;;
15055;SDS011;7626;42.674;23.284;2023-07-13T10:48:53;6.57;;;5.75;;
15055;SDS011;7626;42.674;23.284;2023-07-13T10:51:20;7.63;;;5.80;;
15055;SDS011;7626;42.674;23.284;2023-07-13T10:53:47;7.78;;;5.72;;
15055;SDS011;7626;42.674;23.284;2023-07-13T10:56:19;7.30;;;5.57;;
15055;SDS011;7626;42.674;23.284;2023-07-13T10:58:50;7.57;;;5.65;;
15055;SDS011;7626;42.674;23.284;2023-07-13T11:01:27;5.97;;;5.38;;
15055;SDS011;7626;42.674;23.284;2023-07-13T11:04:05;7.57;;;5.68;;
15055;SDS011;7626;42.674;23.284;2023-07-13T11:06:37;7.00;;;5.50;;
15055;SDS011;7626;42.674;23.284;2023-07-13T11:09:17;7.60;;;5.70;;
15055;SDS011;7626;42.674;23.284;2023-07-13T11:11:44;12.68;;;5.50;;
15055;SDS011;7626;42.674;23.284;2023-07-13T11:14:29;7.22;;;5.68;;
15055;SDS011;7626;42.674;23.284;2023-07-13T11:16:55;9.10;;;6.20;;
15055;SDS011;7626;42.674;23.284;2023-07-13T11:19:39;10.00;;;5.68;;
15055;SDS011;7626;42.674;23.284;2023-07-13T11:22:16;10.95;;;6.03;;
15055;SDS011;7626;42.674;23.284;2023-07-13T11:24:50;8.80;;;6.30;;
15055;SDS011;7626;42.674;23.284;2023-07-13T11:27:31;7.85;;;5.88;;
15055;SDS011;7626;42.674;23.284;2023-07-13T11:32:43;7.18;;;6.20;;
15055;SDS011;7626;42.674;23.284;2023-07-13T11:35:12;7.30;;;6.00;;
15055;SDS011;7626;42.674;23.284;2023-07-13T11:37:39;11.07;;;6.35;;
15055;SDS011;7626;42.674;23.284;2023-07-13T11:40:11;7.63;;;5.97;;
15055;SDS011;7626;42.674;23.284;2023-07-13T11:42:38;9.73;;;6.07;;
15055;SDS011;7626;42.674;23.284;2023-07-13T11:45:12;6.68;;;5.60;;
15055;SDS011;7626;42.674;23.284;2023-07-13T11:47:39;7.65;;;5.82;;
15055;SDS011;7626;42.674;23.284;2023-07-13T11:50:17;10.52;;;6.28;;
15055;SDS011;7626;42.674;23.284;2023-07-13T11:52:44;7.05;;;5.25;;
15055;SDS011;7626;42.674;23.284;2023-07-13T11:55:13;10.13;;;5.68;;
15055;SDS011;7626;42.674;23.284;2023-07-13T11:57:41;7.57;;;5.63;;
15055;SDS011;7626;42.674;23.284;2023-07-13T12:00:12;9.45;;;5.65;;
15055;SDS011;7626;42.674;23.284;2023-07-13T12:02:40;7.90;;;5.72;;
15055;SDS011;7626;42.674;23.284;2023-07-13T12:05:09;8.38;;;5.60;;
15055;SDS011;7626;42.674;23.284;2023-07-13T12:07:38;6.75;;;5.47;;
15055;SDS011;7626;42.674;23.284;2023-07-13T12:10:13;7.35;;;5.32;;
15055;SDS011;7626;42.674;23.284;2023-07-13T12:12:46;10.15;;;5.47;;
15055;SDS011;7626;42.674;23.284;2023-07-13T12:15:13;8.98;;;5.38;;
15055;SDS011;7626;42.674;23.284;2023-07-13T12:17:40;7.43;;;5.10;;
15055;SDS011;7626;42.674;23.284;2023-07-13T12:20:11;7.80;;;5.53;;
15055;SDS011;7626;42.674;23.284;2023-07-13T12:22:46;8.55;;;5.55;;
15055;SDS011;7626;42.674;23.284;2023-07-13T12:25:13;9.38;;;5.18;;
15055;SDS011;7626;42.674;23.284;2023-07-13T12:27:40;7.05;;;5.22;;
15055;SDS011;7626;42.674;23.284;2023-07-13T12:30:20;7.60;;;5.85;;
15055;SDS011;7626;42.674;23.284;2023-07-13T12:32:55;9.57;;;6.13;;
15055;SDS011;7626;42.674;23.284;2023-07-13T12:35:22;10.23;;;5.32;;
15055;SDS011;7626;42.674;23.284;2023-07-13T12:37:50;10.20;;;5.43;;
15055;SDS011;7626;42.674;23.284;2023-07-13T12:40:17;7.45;;;5.55;;
15055;SDS011;7626;42.674;23.284;2023-07-13T12:42:45;9.77;;;5.63;;
15055;SDS011;7626;42.674;23.284;2023-07-13T12:45:16;9.55;;;6.10;;
15055;SDS011;7626;42.674;23.284;2023-07-13T12:47:44;9.45;;;5.57;;
15055;SDS011;7626;42.674;23.284;2023-07-13T12:50:14;6.32;;;4.97;;
15055;SDS011;7626;42.674;23.284;2023-07-13T12:52:42;9.75;;;5.43;;
15055;SDS011;7626;42.674;23.284;2023-07-13T12:55:12;8.95;;;5.35;;
15055;SDS011;7626;42.674;23.284;2023-07-13T12:57:40;8.27;;;5.82;;
15055;SDS011;7626;42.674;23.284;2023-07-13T13:02:58;8.40;;;5.45;;
15055;SDS011;7626;42.674;23.284;2023-07-13T13:05:26;9.77;;;5.72;;
15055;SDS011;7626;42.674;23.284;2023-07-13T13:07:53;10.70;;;5.75;;
15055;SDS011;7626;42.674;23.284;2023-07-13T13:10:20;12.80;;;6.00;;
15055;SDS011;7626;42.674;23.284;2023-07-13T13:12:47;8.75;;;5.28;;
15055;SDS011;7626;42.674;23.284;2023-07-13T13:15:14;9.07;;;5.60;;
15055;SDS011;7626;42.674;23.284;2023-07-13T13:17:41;8.73;;;4.57;;
15055;SDS011;7626;42.674;23.284;2023-07-13T13:20:13;6.32;;;5.20;;
15055;SDS011;7626;42.674;23.284;2023-07-13T13:22:41;8.20;;;5.35;;
15055;SDS011;7626;42.674;23.284;2023-07-13T13:25:08;10.05;;;5.65;;
15055;SDS011;7626;42.674;23.284;2023-07-13T13:27:37;9.05;;;5.45;;
15055;SDS011;7626;42.674;23.284;2023-07-13T13:30:08;6.93;;;5.40;;
15055;SDS011;7626;42.674;23.284;2023-07-13T13:32:35;12.02;;;5.30;;
15055;SDS011;7626;42.674;23.284;2023-07-13T13:35:02;9.25;;;5.15;;
15055;SDS011;7626;42.674;23.284;2023-07-13T13:37:28;8.57;;;5.32;;
15055;SDS011;7626;42.674;23.284;2023-07-13T13:39:55;9.60;;;5.35;;
15055;SDS011;7626;42.674;23.284;2023-07-13T13:42:21;8.68;;;6.13;;
15055;SDS011;7626;42.674;23.284;2023-07-13T13:44:51;9.90;;;5.38;;
15055;SDS011;7626;42.674;23.284;2023-07-13T13:47:20;14.10;;;6.15;;
15055;SDS011;7626;42.674;23.284;2023-07-13T13:49:47;9.70;;;5.25;;
15055;SDS011;7626;42.674;23.284;2023-07-13T13:52:14;8.68;;;5.65;;
15055;SDS011;7626;42.674;23.284;2023-07-13T13:54:40;10.32;;;5.13;;
15055;SDS011;7626;42.674;23.284;2023-07-13T13:57:08;9.35;;;5.40;;
15055;SDS011;7626;42.674;23.284;2023-07-13T13:59:34;8.90;;;4.93;;
15055;SDS011;7626;42.674;23.284;2023-07-13T14:02:08;8.25;;;5.00;;
15055;SDS011;7626;42.674;23.284;2023-07-13T14:04:41;10.57;;;5.80;;
15055;SDS011;7626;42.674;23.284;2023-07-13T14:07:08;7.22;;;5.65;;
15055;SDS011;7626;42.674;23.284;2023-07-13T14:09:34;8.40;;;5.30;;
15055;SDS011;7626;42.674;23.284;2023-07-13T14:12:01;7.78;;;5.50;;
15055;SDS011;7626;42.674;23.284;2023-07-13T14:14:27;7.57;;;6.00;;
15055;SDS011;7626;42.674;23.284;2023-07-13T14:16:55;10.13;;;5.50;;
15055;SDS011;7626;42.674;23.284;2023-07-13T14:19:23;7.20;;;4.68;;
15055;SDS011;7626;42.674;23.284;2023-07-13T14:21:50;6.97;;;5.15;;
15055;SDS011;7626;42.674;23.284;2023-07-13T14:24:18;9.02;;;4.95;;
15055;SDS011;7626;42.674;23.284;2023-07-13T14:26:45;9.38;;;5.28;;
15055;SDS011;7626;42.674;23.284;2023-07-13T14:29:12;9.05;;;5.10;;
15055;SDS011;7626;42.674;23.284;2023-07-13T14:31:39;10.15;;;6.05;;
15055;SDS011;7626;42.674;23.284;2023-07-13T14:34:07;9.15;;;5.57;;
15055;SDS011;7626;42.674;23.284;2023-07-13T14:36:36;8.60;;;5.28;;
15055;SDS011;7626;42.674;23.284;2023-07-13T14:39:05;9.52;;;5.72;;
15055;SDS011;7626;42.674;23.284;2023-07-13T14:41:36;9.35;;;5.60;;
15055;SDS011;7626;42.674;23.284;2023-07-13T14:44:04;6.80;;;5.32;;
15055;SDS011;7626;42.674;23.284;2023-07-13T14:46:33;8.77;;;5.65;;
15055;SDS011;7626;42.674;23.284;2023-07-13T14:49:01;10.45;;;5.38;;
15055;SDS011;7626;42.674;23.284;2023-07-13T14:51:28;8.18;;;5.35;;
15055;SDS011;7626;42.674;23.284;2023-07-13T14:53:56;9.10;;;4.95;;